createdAt,value
2019-01-30T00:00:51.468Z,75.70
2019-01-30T00:03:20.293Z,75.80
2019-01-30T00:05:49.067Z,76.10
2019-01-30T00:08:18.042Z,76.30
2019-01-30T00:10:46.850Z,76.30
2019-01-30T00:13:15.639Z,76.50
2019-01-30T00:15:44.529Z,76.90
2019-01-30T00:18:13.299Z,77.30
2019-01-30T00:20:42.117Z,77.30
2019-01-30T00:23:10.979Z,77.30
2019-01-30T00:25:39.768Z,77.20
2019-01-30T00:28:08.675Z,76.90
2019-01-30T00:30:37.444Z,76.50
2019-01-30T00:33:06.151Z,76.60
2019-01-30T00:35:35.041Z,76.80
2019-01-30T00:38:03.935Z,76.60
2019-01-30T00:40:32.574Z,76.60
2019-01-30T00:43:01.306Z,76.60
2019-01-30T00:45:30.097Z,76.60
2019-01-30T00:47:58.782Z,76.70
2019-01-30T00:50:27.469Z,76.60
2019-01-30T00:52:56.362Z,76.80
2019-01-30T00:55:25.132Z,76.60
2019-01-30T00:57:53.914Z,76.50
2019-01-30T01:00:25.179Z,76.40
2019-01-30T01:02:53.848Z,76.30
2019-01-30T01:05:22.760Z,76.20
2019-01-30T01:07:51.654Z,76.40
2019-01-30T01:10:21.650Z,76.70
2019-01-30T01:12:50.341Z,76.70
2019-01-30T01:15:19.122Z,76.70
2019-01-30T01:17:47.934Z,76.60
2019-01-30T01:20:20.793Z,76.60
2019-01-30T01:22:49.613Z,76.60
2019-01-30T01:25:18.704Z,77.10
2019-01-30T01:27:47.502Z,78.10
2019-01-30T01:30:25.794Z,77.90
2019-01-30T01:32:54.695Z,78.30
2019-01-30T01:35:23.357Z,78.80
2019-01-30T01:37:52.173Z,79.50
2019-01-30T01:40:20.859Z,79.90
2019-01-30T01:42:49.554Z,80.40
2019-01-30T01:45:20.795Z,80.60
2019-01-30T01:47:49.453Z,80.80
2019-01-30T01:50:19.612Z,80.70
2019-01-30T01:52:48.386Z,81.00
2019-01-30T01:55:17.085Z,80.90
2019-01-30T01:57:45.863Z,80.70
2019-01-30T02:00:19.463Z,80.20
2019-01-30T02:02:48.325Z,80.10
2019-01-30T02:05:21.633Z,80.30
2019-01-30T02:07:50.629Z,80.10
2019-01-30T02:10:21.486Z,80.40
2019-01-30T02:12:50.268Z,80.50
2019-01-30T02:15:20.680Z,80.30
2019-01-30T02:17:49.357Z,80.20
2019-01-30T02:20:23.370Z,80.50
2019-01-30T02:22:52.064Z,81.50
2019-01-30T02:25:20.845Z,80.80
2019-01-30T02:27:49.763Z,80.70
2019-01-30T02:30:29.918Z,80.30
2019-01-30T02:32:58.686Z,79.90
2019-01-30T02:35:27.391Z,79.20
2019-01-30T02:37:56.057Z,78.70
2019-01-30T02:40:25.562Z,78.40
2019-01-30T02:42:54.272Z,78.80
2019-01-30T02:45:25.209Z,79.10
2019-01-30T02:47:54.098Z,79.70
2019-01-30T02:50:22.789Z,80.00
2019-01-30T02:52:51.576Z,80.30
2019-01-30T02:55:20.551Z,80.90
2019-01-30T02:57:49.847Z,81.50
2019-01-30T03:00:32.996Z,82.10
2019-01-30T03:03:01.682Z,82.80
2019-01-30T03:05:30.368Z,83.30
2019-01-30T03:07:59.258Z,83.10
2019-01-30T03:10:27.921Z,83.20
2019-01-30T03:12:56.630Z,83.50
2019-01-30T03:15:25.420Z,83.60
2019-01-30T03:17:54.111Z,83.70
2019-01-30T03:20:24.734Z,83.50
2019-01-30T03:22:53.631Z,83.90
2019-01-30T03:25:24.111Z,83.50
2019-01-30T03:27:52.846Z,83.00
2019-01-30T03:30:24.412Z,83.00
2019-01-30T03:32:53.293Z,82.60
2019-01-30T03:35:21.961Z,82.50
2019-01-30T03:37:50.767Z,82.20
2019-01-30T03:40:20.619Z,81.80
2019-01-30T03:42:49.368Z,82.00
2019-01-30T03:45:20.639Z,82.00
2019-01-30T03:47:49.405Z,81.80
2019-01-30T03:50:18.088Z,81.00
2019-01-30T03:52:46.878Z,80.80
2019-01-30T03:55:17.235Z,81.20
2019-01-30T03:57:45.992Z,81.80
2019-01-30T04:00:19.417Z,82.20
2019-01-30T04:02:48.158Z,82.10
2019-01-30T04:05:16.872Z,82.90
2019-01-30T04:07:45.655Z,83.50
2019-01-30T04:10:16.908Z,82.70
2019-01-30T04:12:45.793Z,82.60
2019-01-30T04:15:14.584Z,82.50
2019-01-30T04:17:43.370Z,82.70
2019-01-30T04:20:14.910Z,83.00
2019-01-30T04:22:43.716Z,83.00
2019-01-30T04:25:12.608Z,83.30
2019-01-30T04:27:41.297Z,83.80
2019-01-30T04:30:15.820Z,84.50
2019-01-30T04:32:44.601Z,84.90
2019-01-30T04:35:13.289Z,84.50
2019-01-30T04:37:42.055Z,84.80
2019-01-30T04:40:16.150Z,84.60
2019-01-30T04:42:44.856Z,84.80
2019-01-30T04:45:16.714Z,84.40
2019-01-30T04:47:45.409Z,83.30
2019-01-30T04:50:14.317Z,82.50
2019-01-30T04:52:43.087Z,81.70
2019-01-30T04:55:11.792Z,81.20
2019-01-30T04:57:40.478Z,80.90
2019-01-30T05:00:15.093Z,80.60
2019-01-30T05:02:43.881Z,80.30
2019-01-30T05:05:13.606Z,80.80
2019-01-30T05:07:42.394Z,81.40
2019-01-30T05:10:12.649Z,81.90
2019-01-30T05:12:41.402Z,81.50
2019-01-30T05:15:12.834Z,81.20
2019-01-30T05:17:41.643Z,80.90
2019-01-30T05:20:12.804Z,80.70
2019-01-30T05:22:41.576Z,80.60
2019-01-30T05:25:11.023Z,80.60
2019-01-30T05:27:39.846Z,80.20
2019-01-30T05:30:23.795Z,80.40
2019-01-30T05:32:52.501Z,80.90
2019-01-30T05:35:21.186Z,81.50
2019-01-30T05:37:51.364Z,82.00
2019-01-30T05:40:22.153Z,82.40
2019-01-30T05:42:51.034Z,82.40
2019-01-30T05:45:19.831Z,82.40
2019-01-30T05:47:48.514Z,82.60
2019-01-30T05:50:17.197Z,82.20
2019-01-30T05:52:46.090Z,82.60
2019-01-30T05:55:16.201Z,82.90
2019-01-30T05:57:44.998Z,82.80
2019-01-30T06:00:29.352Z,82.50
2019-01-30T06:02:58.037Z,82.20
2019-01-30T06:05:26.665Z,82.30
2019-01-30T06:07:55.513Z,83.20
2019-01-30T06:10:24.300Z,82.00
2019-01-30T06:12:53.090Z,81.70
2019-01-30T06:15:22.069Z,81.90
2019-01-30T06:17:50.872Z,82.30
2019-01-30T06:20:25.192Z,82.70
2019-01-30T06:22:54.391Z,82.30
2019-01-30T06:25:23.625Z,82.60
2019-01-30T06:27:52.562Z,82.90
2019-01-30T06:30:23.255Z,83.10
2019-01-30T06:32:52.004Z,83.20
2019-01-30T06:35:20.791Z,83.40
2019-01-30T06:37:49.563Z,83.60
2019-01-30T06:40:29.838Z,83.20
2019-01-30T06:42:58.732Z,83.00
2019-01-30T06:45:27.625Z,83.00
2019-01-30T06:47:56.616Z,83.00
2019-01-30T06:50:25.404Z,82.70
2019-01-30T06:52:54.192Z,82.50
2019-01-30T06:55:23.074Z,82.20
2019-01-30T06:57:51.873Z,81.80
2019-01-30T07:00:22.719Z,81.80
2019-01-30T07:02:51.601Z,81.80
2019-01-30T07:05:20.395Z,81.80
2019-01-30T07:07:49.284Z,81.80
2019-01-30T07:10:22.902Z,82.00
2019-01-30T07:12:51.671Z,81.50
2019-01-30T07:15:20.511Z,80.70
2019-01-30T07:17:49.393Z,80.50
2019-01-30T07:20:18.145Z,80.30
2019-01-30T07:22:46.918Z,80.10
2019-01-30T07:25:17.549Z,79.70
2019-01-30T07:27:46.236Z,79.50
2019-01-30T07:30:23.722Z,79.70
2019-01-30T07:32:52.530Z,79.60
2019-01-30T07:35:21.216Z,79.20
2019-01-30T07:37:50.007Z,78.50
2019-01-30T07:40:18.691Z,78.10
2019-01-30T07:42:47.480Z,78.10
2019-01-30T07:45:18.580Z,77.90
2019-01-30T07:47:47.311Z,78.50
2019-01-30T07:50:15.996Z,78.30
2019-01-30T07:52:44.887Z,79.20
2019-01-30T07:55:15.505Z,78.40
2019-01-30T07:57:44.212Z,78.20
2019-01-30T08:00:18.795Z,77.70
2019-01-30T08:02:53.282Z,77.30
2019-01-30T08:05:17.846Z,77.30
2019-01-30T08:07:46.737Z,77.60
2019-01-30T08:10:16.221Z,77.90
2019-01-30T08:12:44.910Z,77.60
2019-01-30T08:15:15.932Z,77.30
2019-01-30T08:17:44.655Z,76.30
2019-01-30T08:20:15.386Z,76.00
2019-01-30T08:22:44.179Z,76.10
2019-01-30T08:25:16.409Z,75.30
2019-01-30T08:27:45.399Z,75.10
2019-01-30T08:30:22.453Z,75.10
2019-01-30T08:32:47.672Z,75.10
2019-01-30T08:35:17.585Z,75.20
2019-01-30T08:37:46.427Z,75.50
2019-01-30T08:40:15.102Z,74.60
2019-01-30T08:42:43.798Z,73.60
2019-01-30T08:45:15.877Z,73.10
2019-01-30T08:47:44.555Z,73.10
2019-01-30T08:50:14.520Z,72.90
2019-01-30T08:52:43.354Z,73.20
2019-01-30T08:55:13.087Z,72.20
2019-01-30T08:57:43.612Z,72.30
2019-01-30T09:00:23.053Z,73.10
2019-01-30T09:02:54.152Z,72.80
2019-01-30T09:05:23.476Z,71.80
2019-01-30T09:07:55.690Z,70.90
2019-01-30T09:10:28.575Z,71.30
2019-01-30T09:12:57.441Z,71.00
2019-01-30T09:15:29.386Z,70.80
2019-01-30T09:17:58.158Z,70.80
2019-01-30T09:20:26.960Z,70.60
2019-01-30T09:22:55.869Z,69.90
2019-01-30T09:25:27.096Z,70.00
2019-01-30T09:27:55.887Z,69.30
2019-01-30T09:30:26.653Z,68.90
2019-01-30T09:32:55.797Z,68.70
2019-01-30T09:35:24.623Z,69.00
2019-01-30T09:37:53.507Z,69.50
2019-01-30T09:40:22.629Z,70.00
2019-01-30T09:42:51.322Z,69.50
2019-01-30T09:45:22.317Z,69.20
2019-01-30T09:47:51.001Z,68.90
2019-01-30T09:50:24.158Z,68.50
2019-01-30T09:52:53.783Z,68.20
2019-01-30T09:55:22.745Z,68.20
2019-01-30T09:57:51.630Z,68.60
2019-01-30T10:00:31.869Z,68.40
2019-01-30T10:03:00.547Z,68.40
2019-01-30T10:05:29.447Z,67.70
2019-01-30T10:07:58.340Z,68.00
2019-01-30T10:10:31.838Z,69.00
2019-01-30T10:13:00.792Z,69.20
2019-01-30T10:15:35.352Z,68.60
2019-01-30T10:18:04.300Z,67.70
2019-01-30T10:20:34.258Z,68.00
2019-01-30T10:23:03.459Z,68.60
2019-01-30T10:25:32.149Z,68.90
2019-01-30T10:28:00.814Z,69.50
2019-01-30T10:30:31.937Z,69.10
2019-01-30T10:33:00.769Z,68.60
2019-01-30T10:35:29.783Z,68.70
2019-01-30T10:37:58.651Z,68.10
2019-01-30T10:40:27.631Z,67.70
2019-01-30T10:42:57.379Z,66.90
2019-01-30T10:45:26.759Z,66.20
2019-01-30T10:47:55.550Z,65.60
2019-01-30T10:50:29.871Z,65.20
2019-01-30T10:52:58.659Z,64.30
2019-01-30T10:55:29.414Z,64.10
2019-01-30T10:57:59.592Z,63.80
2019-01-30T11:00:41.831Z,63.50
2019-01-30T11:03:10.752Z,63.80
2019-01-30T11:05:39.584Z,63.20
2019-01-30T11:08:08.330Z,62.30
2019-01-30T11:10:37.046Z,62.30
2019-01-30T11:13:06.600Z,61.60
2019-01-30T11:15:35.450Z,61.80
2019-01-30T11:18:06.046Z,61.20
2019-01-30T11:20:34.793Z,61.00
2019-01-30T11:23:03.787Z,60.30
2019-01-30T11:25:35.115Z,59.00
2019-01-30T11:28:04.027Z,57.60
2019-01-30T11:30:35.013Z,57.60
2019-01-30T11:33:03.406Z,58.00
2019-01-30T11:35:32.215Z,58.60
2019-01-30T11:38:01.020Z,57.90
2019-01-30T11:40:30.131Z,57.60
2019-01-30T11:42:58.878Z,56.60
2019-01-30T11:45:33.125Z,56.50
2019-01-30T11:48:01.807Z,56.90
2019-01-30T11:50:30.578Z,56.90
2019-01-30T11:52:59.385Z,57.00
2019-01-30T11:55:28.176Z,56.20
2019-01-30T11:57:56.862Z,56.70
2019-01-30T12:00:40.806Z,57.30
2019-01-30T12:03:09.516Z,58.00
2019-01-30T12:05:38.384Z,58.10
2019-01-30T12:08:07.146Z,58.00
2019-01-30T12:10:35.863Z,58.30
2019-01-30T12:13:04.545Z,58.40
2019-01-30T12:15:33.315Z,59.30
2019-01-30T12:18:02.226Z,59.90
2019-01-30T12:20:31.014Z,60.30
2019-01-30T12:23:00.008Z,60.30
2019-01-30T12:25:28.836Z,60.00
2019-01-30T12:27:57.790Z,60.20
2019-01-30T12:30:30.369Z,60.10
2019-01-30T12:32:59.158Z,59.60
2019-01-30T12:35:27.820Z,60.10
2019-01-30T12:37:56.634Z,60.30
2019-01-30T12:40:26.222Z,60.60
2019-01-30T12:42:55.152Z,60.80
2019-01-30T12:45:26.773Z,60.90
2019-01-30T12:47:56.805Z,61.50
2019-01-30T12:50:25.490Z,61.30
2019-01-30T12:52:54.254Z,61.70
2019-01-30T12:55:23.174Z,62.00
2019-01-30T12:57:52.166Z,62.40
2019-01-30T13:00:23.411Z,63.00
2019-01-30T13:02:52.182Z,63.00
2019-01-30T13:05:21.570Z,62.60
2019-01-30T13:07:50.496Z,62.90
2019-01-30T13:10:19.182Z,62.50
2019-01-30T13:12:47.847Z,63.20
2019-01-30T13:15:22.491Z,63.30
2019-01-30T13:17:51.283Z,62.10
2019-01-30T13:20:21.278Z,61.50
2019-01-30T13:22:50.266Z,61.00
2019-01-30T13:25:21.641Z,60.30
2019-01-30T13:27:50.430Z,60.30
2019-01-30T13:30:36.628Z,61.00
2019-01-30T13:33:05.692Z,61.90
2019-01-30T13:35:34.476Z,62.10
2019-01-30T13:38:03.305Z,62.10
2019-01-30T13:40:34.525Z,62.40
2019-01-30T13:43:03.323Z,62.80
2019-01-30T13:45:32.228Z,63.40
2019-01-30T13:48:01.020Z,63.60
2019-01-30T13:50:30.383Z,63.80
2019-01-30T13:52:59.312Z,63.80
2019-01-30T13:55:28.082Z,63.90
2019-01-30T13:57:56.864Z,64.00
2019-01-30T14:00:28.434Z,64.40
2019-01-30T14:02:57.266Z,64.20
2019-01-30T14:05:26.070Z,64.50
2019-01-30T14:07:54.809Z,64.30
2019-01-30T14:10:23.497Z,64.70
2019-01-30T14:12:52.197Z,65.60
2019-01-30T14:15:23.201Z,65.50
2019-01-30T14:17:51.943Z,65.10
2019-01-30T14:20:20.877Z,65.00
2019-01-30T14:22:49.918Z,64.80
2019-01-30T14:25:18.573Z,64.50
2019-01-30T14:27:47.371Z,64.20
2019-01-30T14:30:19.321Z,63.20
2019-01-30T14:32:48.347Z,63.50
2019-01-30T14:35:17.326Z,63.80
2019-01-30T14:37:46.108Z,63.50
2019-01-30T14:40:20.149Z,62.70
2019-01-30T14:42:48.835Z,62.60
2019-01-30T14:45:18.812Z,63.00
2019-01-30T14:47:49.184Z,63.30
2019-01-30T14:50:19.687Z,63.90
2019-01-30T14:52:48.457Z,64.10
2019-01-30T14:55:17.604Z,65.00
2019-01-30T14:57:46.342Z,65.70
2019-01-30T15:00:20.217Z,66.10
2019-01-30T15:02:48.952Z,66.60
2019-01-30T15:05:22.349Z,66.10
2019-01-30T15:07:48.946Z,65.80
2019-01-30T15:10:19.387Z,66.20
2019-01-30T15:12:48.304Z,67.80
2019-01-30T15:15:19.588Z,68.60
2019-01-30T15:17:49.906Z,68.90
2019-01-30T15:20:20.513Z,68.70
2019-01-30T15:22:49.297Z,68.90
2019-01-30T15:25:19.955Z,69.00
2019-01-30T15:27:48.818Z,68.90
2019-01-30T15:30:26.210Z,69.00
2019-01-30T15:32:55.000Z,69.70
2019-01-30T15:35:33.251Z,70.40
2019-01-30T15:37:54.012Z,70.90
2019-01-30T15:40:30.070Z,71.00
2019-01-30T15:42:58.972Z,71.50
2019-01-30T15:45:27.780Z,71.90
2019-01-30T15:47:56.514Z,71.90
2019-01-30T15:50:39.192Z,72.00
2019-01-30T15:53:10.816Z,71.80
2019-01-30T15:55:40.523Z,72.00
2019-01-30T15:58:11.067Z,72.00
2019-01-30T16:00:52.027Z,72.40
2019-01-30T16:03:20.790Z,72.10
2019-01-30T16:05:49.501Z,71.80
2019-01-30T16:08:18.296Z,71.90
2019-01-30T16:10:47.078Z,72.10
2019-01-30T16:13:15.992Z,72.50
2019-01-30T16:15:48.934Z,72.40
2019-01-30T16:18:18.190Z,72.70
2019-01-30T16:20:47.325Z,73.30
2019-01-30T16:23:16.902Z,73.50
2019-01-30T16:25:45.757Z,73.40
2019-01-30T16:28:14.641Z,73.10
2019-01-30T16:30:43.549Z,72.40
2019-01-30T16:33:15.392Z,72.30
2019-01-30T16:35:55.367Z,72.20
2019-01-30T16:38:15.734Z,72.40
2019-01-30T16:40:44.636Z,72.10
2019-01-30T16:46:09.136Z,72.40
2019-01-30T16:48:46.222Z,72.30
2019-01-30T16:51:15.001Z,72.30
2019-01-30T16:53:49.225Z,72.30
2019-01-30T16:56:17.999Z,72.50
2019-01-30T16:58:46.801Z,72.70
2019-01-30T17:01:15.493Z,72.70
2019-01-30T17:03:44.522Z,73.30
2019-01-30T17:06:13.479Z,73.80
2019-01-30T17:08:42.166Z,73.90
2019-01-30T17:11:10.954Z,73.90
2019-01-30T17:13:39.740Z,74.00
2019-01-30T17:16:08.401Z,73.60
2019-01-30T17:18:37.202Z,73.20
2019-01-30T17:21:06.004Z,73.00
2019-01-30T17:23:34.897Z,72.80
2019-01-30T17:26:03.937Z,72.50
2019-01-30T17:28:32.971Z,72.40
2019-01-30T17:31:02.788Z,72.60
2019-01-30T17:33:32.714Z,72.60
2019-01-30T17:36:01.509Z,72.50
2019-01-30T17:38:30.394Z,72.50
2019-01-30T17:40:59.287Z,73.50
2019-01-30T17:43:28.998Z,73.60
2019-01-30T17:45:57.892Z,73.70
2019-01-30T17:48:26.676Z,73.50
2019-01-30T17:50:55.650Z,73.20
2019-01-30T17:53:24.531Z,73.00
2019-01-30T17:55:53.453Z,73.30
2019-01-30T17:58:22.218Z,73.20
2019-01-30T18:00:55.624Z,72.90
2019-01-30T18:03:24.426Z,72.80
2019-01-30T18:05:53.216Z,72.50
2019-01-30T18:08:22.004Z,72.40
2019-01-30T18:10:50.693Z,72.10
2019-01-30T18:13:19.589Z,71.90
2019-01-30T18:15:48.260Z,72.00
2019-01-30T18:18:17.063Z,72.10
2019-01-30T18:20:45.782Z,71.80
2019-01-30T18:23:14.533Z,72.30
2019-01-30T18:25:43.321Z,72.30
2019-01-30T18:28:12.110Z,72.30
2019-01-30T18:30:40.775Z,72.00
2019-01-30T18:33:09.484Z,71.80
2019-01-30T18:35:39.175Z,72.00
2019-01-30T18:38:07.982Z,72.30
2019-01-30T18:40:36.670Z,72.40
2019-01-30T18:43:05.410Z,72.70
2019-01-30T18:45:34.349Z,72.70
2019-01-30T18:48:03.139Z,73.20
2019-01-30T18:50:31.926Z,73.20
2019-01-30T18:53:00.695Z,73.00
2019-01-30T18:55:31.106Z,73.00
2019-01-30T18:58:00.141Z,73.10
2019-01-30T19:00:34.148Z,72.80
2019-01-30T19:03:03.990Z,72.90
2019-01-30T19:05:41.457Z,73.40
2019-01-30T19:08:10.242Z,73.90
2019-01-30T19:10:46.097Z,73.80
2019-01-30T19:13:15.094Z,74.00
2019-01-30T19:15:43.962Z,74.10
2019-01-30T19:18:12.750Z,74.30
2019-01-30T19:20:44.305Z,73.80
2019-01-30T19:23:13.217Z,73.40
2019-01-30T19:25:42.008Z,73.20
2019-01-30T19:28:10.773Z,73.30
2019-01-30T19:30:39.581Z,73.40
2019-01-30T19:33:09.496Z,73.40
2019-01-30T19:35:46.665Z,73.60
2019-01-30T19:38:15.576Z,73.80
2019-01-30T19:40:44.261Z,74.10
2019-01-30T19:43:13.054Z,74.10
2019-01-30T19:45:41.855Z,74.10
2019-01-30T19:48:10.526Z,74.10
2019-01-30T19:50:39.420Z,74.00
2019-01-30T19:53:08.647Z,73.70
2019-01-30T19:55:37.381Z,73.90
2019-01-30T19:58:06.500Z,73.90
2019-01-30T20:00:37.483Z,74.10
2019-01-30T20:03:09.611Z,74.20
2019-01-30T20:05:38.407Z,74.10
2019-01-30T20:08:07.290Z,74.60
2019-01-30T20:10:36.593Z,74.10
2019-01-30T20:13:05.713Z,73.80
2019-01-30T20:15:34.475Z,74.00
2019-01-30T20:18:03.281Z,73.90
2019-01-30T20:20:32.262Z,73.60
2019-01-30T20:23:01.048Z,73.80
2019-01-30T20:25:40.290Z,74.30
2019-01-30T20:28:09.068Z,74.90
2019-01-30T20:30:37.863Z,75.00
2019-01-30T20:33:06.852Z,74.30
2019-01-30T20:35:35.743Z,73.70
2019-01-30T20:38:04.827Z,73.40
2019-01-30T20:40:33.965Z,73.40
2019-01-30T20:43:02.955Z,73.80
2019-01-30T20:45:33.861Z,73.80
2019-01-30T20:48:03.069Z,73.90
2019-01-30T20:50:32.058Z,73.40
2019-01-30T20:53:00.746Z,73.50
2019-01-30T20:55:29.534Z,73.60
2019-01-30T20:57:58.323Z,73.40
2019-01-30T21:00:34.912Z,73.70
2019-01-30T21:03:02.331Z,73.80
2019-01-30T21:05:31.038Z,72.80
2019-01-30T21:08:00.032Z,73.50
2019-01-30T21:10:31.586Z,73.70
2019-01-30T21:13:00.271Z,74.00
2019-01-30T21:15:29.164Z,74.40
2019-01-30T21:18:28.223Z,74.80
2019-01-30T21:20:57.257Z,74.60
2019-01-30T21:23:25.944Z,75.40
2019-01-30T21:25:54.733Z,75.80
2019-01-30T21:28:23.520Z,75.30
2019-01-30T21:30:52.225Z,74.60
2019-01-30T21:33:20.975Z,74.50
2019-01-30T21:35:49.684Z,74.30
2019-01-30T21:38:18.346Z,73.90
2019-01-30T21:40:47.365Z,74.40
2019-01-30T21:43:17.662Z,74.70
2019-01-30T21:45:46.342Z,75.00
2019-01-30T21:48:15.265Z,75.30
2019-01-30T21:50:44.054Z,75.20
2019-01-30T21:53:12.732Z,75.20
2019-01-30T21:55:42.540Z,75.30
2019-01-30T21:58:11.452Z,75.50
2019-01-30T22:00:40.251Z,75.30
2019-01-30T22:05:51.394Z,75.90
2019-01-30T22:08:46.576Z,76.70
2019-01-30T22:11:10.514Z,76.60
2019-01-30T22:17:20.080Z,76.50
2019-01-30T22:19:48.979Z,76.60
2019-01-30T22:22:18.092Z,76.40
2019-01-30T22:25:27.109Z,76.90
2019-01-30T22:27:46.122Z,77.50
2019-01-30T22:30:29.227Z,78.30
2019-01-30T22:32:57.974Z,78.30
2019-01-30T22:35:26.633Z,77.60
2019-01-30T22:37:55.559Z,77.50
2019-01-30T22:40:26.099Z,77.50
2019-01-30T22:42:55.088Z,77.20
2019-01-30T22:45:24.285Z,77.20
2019-01-30T22:47:53.279Z,77.00
2019-01-30T22:50:22.388Z,77.10
2019-01-30T22:52:51.226Z,77.00
2019-01-30T22:55:21.660Z,77.00
2019-01-30T22:57:51.313Z,76.90
2019-01-30T23:00:52.032Z,77.80
2019-01-30T23:03:35.670Z,78.30
2019-01-30T23:06:28.280Z,78.70
2019-01-30T23:09:19.528Z,79.00
2019-01-30T23:12:16.476Z,78.70
2019-01-30T23:14:50.998Z,78.10
2019-01-30T23:17:31.770Z,77.70
2019-01-30T23:20:03.333Z,77.70
2019-01-30T23:22:54.619Z,78.10
2019-01-30T23:25:41.393Z,78.30
2019-01-30T23:28:32.860Z,78.30
2019-01-30T23:31:04.736Z,78.90
2019-01-30T23:34:02.297Z,79.00
2019-01-30T23:36:52.266Z,79.00
2019-01-30T23:39:36.022Z,78.60
2019-01-30T23:42:07.866Z,78.40
2019-01-30T23:44:39.893Z,77.50
2019-01-30T23:47:24.507Z,77.80
2019-01-30T23:50:24.938Z,78.10
2019-01-30T23:52:56.901Z,78.60
2019-01-30T23:55:46.886Z,79.30
2019-01-30T23:58:21.961Z,79.50
